sensor_id;sensor_type;location;lat;lon;timestamp;pressure;altitude;pressure_sealevel;temperature;humidity
596;BME280;19946;49.306;11.350;2022-08-19T00:01:59;95826.00;;;17.96;100.00
596;BME280;19946;49.306;11.350;2022-08-19T00:04:59;95837.38;;;18.09;100.00
596;BME280;19946;49.306;11.350;2022-08-19T00:08:00;95819.69;;;18.18;100.00
596;BME280;19946;49.306;11.350;2022-08-19T00:11:00;95818.84;;;18.11;100.00
596;BME280;19946;49.306;11.350;2022-08-19T00:14:01;95815.47;;;18.17;100.00
596;BME280;19946;49.306;11.350;2022-08-19T00:17:03;95820.31;;;18.20;100.00
596;BME280;19946;49.306;11.350;2022-08-19T00:20:04;95823.94;;;18.19;100.00
596;BME280;19946;49.306;11.350;2022-08-19T00:23:06;95811.19;;;18.09;100.00
596;BME280;19946;49.306;11.350;2022-08-19T00:26:07;95819.81;;;18.03;100.00
596;BME280;19946;49.306;11.350;2022-08-19T00:29:10;95823.44;;;18.02;100.00
596;BME280;19946;49.306;11.350;2022-08-19T00:32:11;95822.59;;;17.95;100.00
596;BME280;19946;49.306;11.350;2022-08-19T00:35:12;95822.88;;;17.85;100.00
596;BME280;19946;49.306;11.350;2022-08-19T00:38:12;95835.69;;;17.95;100.00
596;BME280;19946;49.306;11.350;2022-08-19T00:41:15;95829.63;;;17.95;100.00
596;BME280;19946;49.306;11.350;2022-08-19T00:44:19;95829.16;;;17.84;100.00
596;BME280;19946;49.306;11.350;2022-08-19T00:47:20;95836.19;;;17.84;100.00
596;BME280;19946;49.306;11.350;2022-08-19T00:50:20;95832.16;;;17.81;100.00
596;BME280;19946;49.306;11.350;2022-08-19T00:53:23;95831.84;;;17.70;100.00
596;BME280;19946;49.306;11.350;2022-08-19T00:56:25;95833.84;;;17.68;100.00
596;BME280;19946;49.306;11.350;2022-08-19T00:59:27;95822.75;;;17.66;100.00
596;BME280;19946;49.306;11.350;2022-08-19T01:02:29;95829.41;;;17.68;100.00
596;BME280;19946;49.306;11.350;2022-08-19T01:05:30;95826.59;;;17.70;100.00
596;BME280;19946;49.306;11.350;2022-08-19T01:08:30;95835.91;;;17.72;100.00
596;BME280;19946;49.306;11.350;2022-08-19T01:11:35;95842.88;;;17.65;100.00
596;BME280;19946;49.306;11.350;2022-08-19T01:14:38;95834.31;;;17.78;100.00
596;BME280;19946;49.306;11.350;2022-08-19T01:17:40;95833.03;;;17.67;100.00
596;BME280;19946;49.306;11.350;2022-08-19T01:20:42;95838.19;;;17.61;100.00
596;BME280;19946;49.306;11.350;2022-08-19T01:23:44;95844.59;;;17.58;100.00
596;BME280;19946;49.306;11.350;2022-08-19T01:26:47;95836.81;;;17.65;100.00
596;BME280;19946;49.306;11.350;2022-08-19T01:29:47;95829.78;;;17.65;100.00
596;BME280;19946;49.306;11.350;2022-08-19T01:32:49;95840.75;;;17.75;100.00
596;BME280;19946;49.306;11.350;2022-08-19T01:35:50;95843.28;;;17.90;100.00
596;BME280;19946;49.306;11.350;2022-08-19T01:38:51;95844.44;;;17.81;100.00
596;BME280;19946;49.306;11.350;2022-08-19T01:41:52;95840.13;;;17.73;100.00
596;BME280;19946;49.306;11.350;2022-08-19T01:44:54;95845.16;;;17.75;100.00
596;BME280;19946;49.306;11.350;2022-08-19T01:47:56;95856.75;;;17.87;100.00
596;BME280;19946;49.306;11.350;2022-08-19T01:50:56;95857.19;;;17.91;100.00
596;BME280;19946;49.306;11.350;2022-08-19T01:53:57;95862.66;;;17.96;100.00
596;BME280;19946;49.306;11.350;2022-08-19T01:57:06;95863.91;;;18.00;100.00
596;BME280;19946;49.306;11.350;2022-08-19T02:00:11;95863.06;;;17.93;100.00
596;BME280;19946;49.306;11.350;2022-08-19T02:03:12;95862.00;;;17.87;100.00
596;BME280;19946;49.306;11.350;2022-08-19T02:06:12;95855.41;;;17.70;100.00
596;BME280;19946;49.306;11.350;2022-08-19T02:09:13;95866.19;;;17.81;100.00
596;BME280;19946;49.306;11.350;2022-08-19T02:12:15;95872.25;;;17.82;100.00
596;BME280;19946;49.306;11.350;2022-08-19T02:15:18;95881.94;;;17.88;100.00
596;BME280;19946;49.306;11.350;2022-08-19T02:18:19;95876.16;;;17.93;100.00
596;BME280;19946;49.306;11.350;2022-08-19T02:21:22;95885.25;;;17.97;100.00
596;BME280;19946;49.306;11.350;2022-08-19T02:24:23;95885.69;;;18.00;100.00
596;BME280;19946;49.306;11.350;2022-08-19T02:27:24;95890.91;;;18.00;100.00
596;BME280;19946;49.306;11.350;2022-08-19T02:30:24;95881.00;;;17.96;100.00
596;BME280;19946;49.306;11.350;2022-08-19T02:33:25;95892.69;;;17.93;100.00
596;BME280;19946;49.306;11.350;2022-08-19T02:36:25;95900.47;;;17.86;100.00
596;BME280;19946;49.306;11.350;2022-08-19T02:39:26;95903.78;;;17.95;100.00
596;BME280;19946;49.306;11.350;2022-08-19T02:42:26;95904.38;;;17.97;100.00
596;BME280;19946;49.306;11.350;2022-08-19T02:45:27;95903.38;;;17.98;100.00
596;BME280;19946;49.306;11.350;2022-08-19T02:48:27;95893.38;;;17.80;100.00
596;BME280;19946;49.306;11.350;2022-08-19T02:51:40;95886.69;;;17.78;100.00
596;BME280;19946;49.306;11.350;2022-08-19T02:54:40;95888.69;;;17.76;100.00
596;BME280;19946;49.306;11.350;2022-08-19T02:57:40;95871.75;;;17.72;100.00
596;BME280;19946;49.306;11.350;2022-08-19T03:00:51;95877.91;;;17.64;100.00
596;BME280;19946;49.306;11.350;2022-08-19T03:03:52;95881.44;;;17.57;100.00
596;BME280;19946;49.306;11.350;2022-08-19T03:06:53;95873.34;;;17.51;100.00
596;BME280;19946;49.306;11.350;2022-08-19T03:09:54;95860.16;;;17.45;100.00
596;BME280;19946;49.306;11.350;2022-08-19T03:12:54;95863.78;;;17.44;100.00
596;BME280;19946;49.306;11.350;2022-08-19T03:15:54;95847.91;;;17.45;100.00
596;BME280;19946;49.306;11.350;2022-08-19T03:18:56;95848.25;;;17.42;100.00
596;BME280;19946;49.306;11.350;2022-08-19T03:21:59;95848.84;;;17.38;100.00
596;BME280;19946;49.306;11.350;2022-08-19T03:25:00;95858.03;;;17.34;100.00
596;BME280;19946;49.306;11.350;2022-08-19T03:28:01;95860.13;;;17.38;100.00
596;BME280;19946;49.306;11.350;2022-08-19T03:31:04;95848.47;;;17.41;100.00
596;BME280;19946;49.306;11.350;2022-08-19T03:34:06;95834.94;;;17.37;100.00
596;BME280;19946;49.306;11.350;2022-08-19T03:37:10;95824.22;;;17.32;100.00
596;BME280;19946;49.306;11.350;2022-08-19T03:40:12;95826.81;;;17.32;100.00
596;BME280;19946;49.306;11.350;2022-08-19T03:43:12;95831.06;;;17.33;100.00
596;BME280;19946;49.306;11.350;2022-08-19T03:46:24;95833.13;;;17.38;100.00
596;BME280;19946;49.306;11.350;2022-08-19T03:49:28;95842.78;;;17.37;100.00
596;BME280;19946;49.306;11.350;2022-08-19T03:52:28;95837.94;;;17.34;100.00
596;BME280;19946;49.306;11.350;2022-08-19T03:55:29;95830.44;;;17.31;100.00
596;BME280;19946;49.306;11.350;2022-08-19T03:58:29;95828.22;;;17.28;100.00
596;BME280;19946;49.306;11.350;2022-08-19T04:01:30;95833.81;;;17.25;100.00
596;BME280;19946;49.306;11.350;2022-08-19T04:04:30;95842.66;;;17.24;100.00
596;BME280;19946;49.306;11.350;2022-08-19T04:07:31;95846.25;;;17.23;100.00
596;BME280;19946;49.306;11.350;2022-08-19T04:10:37;95855.28;;;17.21;100.00
596;BME280;19946;49.306;11.350;2022-08-19T04:13:38;95871.06;;;17.27;100.00
596;BME280;19946;49.306;11.350;2022-08-19T04:16:38;95887.47;;;17.36;100.00
596;BME280;19946;49.306;11.350;2022-08-19T04:19:39;95886.31;;;17.24;100.00
596;BME280;19946;49.306;11.350;2022-08-19T04:22:39;95888.63;;;17.33;100.00
596;BME280;19946;49.306;11.350;2022-08-19T04:25:42;95887.00;;;17.32;100.00
596;BME280;19946;49.306;11.350;2022-08-19T04:28:43;95893.44;;;17.30;100.00
596;BME280;19946;49.306;11.350;2022-08-19T04:31:45;95906.59;;;17.36;100.00
596;BME280;19946;49.306;11.350;2022-08-19T04:34:45;95911.38;;;17.33;100.00
596;BME280;19946;49.306;11.350;2022-08-19T04:37:45;95910.47;;;17.40;100.00
596;BME280;19946;49.306;11.350;2022-08-19T04:40:49;95918.69;;;17.37;100.00
596;BME280;19946;49.306;11.350;2022-08-19T04:44:09;95913.81;;;17.34;100.00
596;BME280;19946;49.306;11.350;2022-08-19T04:47:10;95906.03;;;17.20;100.00
596;BME280;19946;49.306;11.350;2022-08-19T04:50:10;95925.84;;;17.29;100.00
596;BME280;19946;49.306;11.350;2022-08-19T04:53:11;95935.91;;;17.32;100.00
596;BME280;19946;49.306;11.350;2022-08-19T04:56:16;95933.94;;;17.34;100.00
596;BME280;19946;49.306;11.350;2022-08-19T04:59:20;95934.75;;;17.34;100.00
596;BME280;19946;49.306;11.350;2022-08-19T05:02:20;95939.34;;;17.32;100.00
596;BME280;19946;49.306;11.350;2022-08-19T05:05:24;95952.72;;;17.37;100.00
596;BME280;19946;49.306;11.350;2022-08-19T05:08:25;95959.75;;;17.37;100.00
596;BME280;19946;49.306;11.350;2022-08-19T05:11:27;95951.91;;;17.37;100.00
596;BME280;19946;49.306;11.350;2022-08-19T05:14:28;95951.25;;;17.35;100.00
596;BME280;19946;49.306;11.350;2022-08-19T05:17:29;95947.84;;;17.34;100.00
596;BME280;19946;49.306;11.350;2022-08-19T05:20:29;95947.47;;;17.37;100.00
596;BME280;19946;49.306;11.350;2022-08-19T05:23:48;95948.47;;;17.36;100.00
596;BME280;19946;49.306;11.350;2022-08-19T05:26:51;95945.50;;;17.39;100.00
596;BME280;19946;49.306;11.350;2022-08-19T05:29:51;95950.72;;;17.39;100.00
596;BME280;19946;49.306;11.350;2022-08-19T05:32:52;95951.59;;;17.46;100.00
596;BME280;19946;49.306;11.350;2022-08-19T05:35:52;95952.88;;;17.50;100.00
596;BME280;19946;49.306;11.350;2022-08-19T05:38:53;95949.69;;;17.55;100.00
596;BME280;19946;49.306;11.350;2022-08-19T05:41:57;95946.81;;;17.50;100.00
596;BME280;19946;49.306;11.350;2022-08-19T05:44:58;95946.00;;;17.49;100.00
596;BME280;19946;49.306;11.350;2022-08-19T05:47:58;95938.03;;;17.58;100.00
596;BME280;19946;49.306;11.350;2022-08-19T05:51:03;95932.78;;;17.58;100.00
596;BME280;19946;49.306;11.350;2022-08-19T05:54:06;95940.47;;;17.59;100.00
596;BME280;19946;49.306;11.350;2022-08-19T05:57:09;95946.59;;;17.66;100.00
596;BME280;19946;49.306;11.350;2022-08-19T06:00:10;95944.53;;;17.62;100.00
596;BME280;19946;49.306;11.350;2022-08-19T06:03:12;95946.88;;;17.57;100.00
596;BME280;19946;49.306;11.350;2022-08-19T06:06:14;95949.84;;;17.68;100.00
596;BME280;19946;49.306;11.350;2022-08-19T06:09:15;95949.09;;;17.74;100.00
596;BME280;19946;49.306;11.350;2022-08-19T06:12:16;95947.59;;;17.65;100.00
596;BME280;19946;49.306;11.350;2022-08-19T06:15:16;95946.81;;;17.86;100.00
596;BME280;19946;49.306;11.350;2022-08-19T06:18:16;95946.38;;;18.04;100.00
596;BME280;19946;49.306;11.350;2022-08-19T06:21:21;95946.06;;;17.92;100.00
596;BME280;19946;49.306;11.350;2022-08-19T06:24:24;95937.94;;;17.87;100.00
596;BME280;19946;49.306;11.350;2022-08-19T06:27:25;95940.69;;;18.00;100.00
596;BME280;19946;49.306;11.350;2022-08-19T06:30:25;95942.75;;;18.05;100.00
596;BME280;19946;49.306;11.350;2022-08-19T06:33:26;95939.16;;;18.06;100.00
596;BME280;19946;49.306;11.350;2022-08-19T06:36:29;95940.19;;;18.11;100.00
596;BME280;19946;49.306;11.350;2022-08-19T06:39:35;95947.41;;;18.31;100.00
596;BME280;19946;49.306;11.350;2022-08-19T06:42:37;95952.44;;;18.32;100.00
596;BME280;19946;49.306;11.350;2022-08-19T06:45:41;95944.97;;;18.29;100.00
596;BME280;19946;49.306;11.350;2022-08-19T06:48:42;95961.81;;;18.20;100.00
596;BME280;19946;49.306;11.350;2022-08-19T06:51:45;95958.00;;;18.44;100.00
596;BME280;19946;49.306;11.350;2022-08-19T06:54:47;95965.53;;;18.53;100.00
596;BME280;19946;49.306;11.350;2022-08-19T06:57:47;95975.06;;;18.61;100.00
596;BME280;19946;49.306;11.350;2022-08-19T07:00:48;95971.09;;;18.65;100.00
596;BME280;19946;49.306;11.350;2022-08-19T07:03:48;95979.13;;;18.64;100.00
596;BME280;19946;49.306;11.350;2022-08-19T07:06:50;95981.94;;;18.90;100.00
596;BME280;19946;49.306;11.350;2022-08-19T07:09:56;95981.53;;;18.93;100.00
596;BME280;19946;49.306;11.350;2022-08-19T07:12:56;95989.63;;;18.91;100.00
596;BME280;19946;49.306;11.350;2022-08-19T07:15:56;95990.63;;;18.90;100.00
596;BME280;19946;49.306;11.350;2022-08-19T07:18:57;95988.41;;;18.94;100.00
596;BME280;19946;49.306;11.350;2022-08-19T07:21:58;95989.63;;;18.91;100.00
596;BME280;19946;49.306;11.350;2022-08-19T07:25:01;95986.19;;;18.63;100.00
596;BME280;19946;49.306;11.350;2022-08-19T07:28:03;95979.41;;;18.75;100.00
596;BME280;19946;49.306;11.350;2022-08-19T07:31:07;95985.47;;;18.76;100.00
596;BME280;19946;49.306;11.350;2022-08-19T07:34:11;95981.03;;;18.76;100.00
596;BME280;19946;49.306;11.350;2022-08-19T07:37:11;95977.78;;;18.74;100.00
596;BME280;19946;49.306;11.350;2022-08-19T07:40:12;95974.25;;;18.88;100.00
596;BME280;19946;49.306;11.350;2022-08-19T07:43:13;95967.38;;;18.81;100.00
596;BME280;19946;49.306;11.350;2022-08-19T07:46:16;95974.47;;;18.59;100.00
596;BME280;19946;49.306;11.350;2022-08-19T07:49:18;95964.41;;;18.41;100.00
596;BME280;19946;49.306;11.350;2022-08-19T07:52:19;95956.69;;;18.33;100.00
596;BME280;19946;49.306;11.350;2022-08-19T07:55:23;95950.28;;;18.36;100.00
596;BME280;19946;49.306;11.350;2022-08-19T07:58:23;95949.28;;;18.37;100.00
596;BME280;19946;49.306;11.350;2022-08-19T08:01:25;95946.69;;;18.43;100.00
596;BME280;19946;49.306;11.350;2022-08-19T08:04:27;95954.34;;;18.38;100.00
596;BME280;19946;49.306;11.350;2022-08-19T08:07:46;95957.56;;;18.40;100.00
596;BME280;19946;49.306;11.350;2022-08-19T08:11:05;95960.88;;;18.49;100.00
596;BME280;19946;49.306;11.350;2022-08-19T08:14:06;95972.06;;;18.36;100.00
596;BME280;19946;49.306;11.350;2022-08-19T08:17:08;95971.44;;;18.34;100.00
596;BME280;19946;49.306;11.350;2022-08-19T08:20:09;95969.25;;;18.38;100.00
596;BME280;19946;49.306;11.350;2022-08-19T08:23:09;95977.03;;;18.31;100.00
596;BME280;19946;49.306;11.350;2022-08-19T08:26:23;95986.91;;;18.29;100.00
596;BME280;19946;49.306;11.350;2022-08-19T08:29:24;95978.03;;;18.30;100.00
596;BME280;19946;49.306;11.350;2022-08-19T08:32:25;95980.28;;;18.33;100.00
596;BME280;19946;49.306;11.350;2022-08-19T08:35:26;95970.25;;;18.37;100.00
596;BME280;19946;49.306;11.350;2022-08-19T08:38:27;95973.28;;;18.40;100.00
596;BME280;19946;49.306;11.350;2022-08-19T08:41:40;95974.59;;;18.30;100.00
596;BME280;19946;49.306;11.350;2022-08-19T08:45:05;95968.44;;;18.37;100.00
596;BME280;19946;49.306;11.350;2022-08-19T08:48:17;95972.25;;;18.35;100.00
596;BME280;19946;49.306;11.350;2022-08-19T08:51:24;95980.31;;;18.40;100.00
596;BME280;19946;49.306;11.350;2022-08-19T08:54:34;95983.16;;;18.38;100.00
596;BME280;19946;49.306;11.350;2022-08-19T08:57:38;95983.72;;;18.12;100.00
596;BME280;19946;49.306;11.350;2022-08-19T09:00:43;95985.34;;;18.13;100.00
596;BME280;19946;49.306;11.350;2022-08-19T09:03:45;95987.84;;;18.21;100.00
596;BME280;19946;49.306;11.350;2022-08-19T09:10:11;95974.28;;;18.39;100.00
596;BME280;19946;49.306;11.350;2022-08-19T09:13:18;95972.16;;;18.49;100.00
596;BME280;19946;49.306;11.350;2022-08-19T09:16:22;95974.81;;;18.56;100.00
596;BME280;19946;49.306;11.350;2022-08-19T09:19:27;95976.31;;;18.65;100.00
596;BME280;19946;49.306;11.350;2022-08-19T09:22:27;95972.16;;;18.49;100.00
596;BME280;19946;49.306;11.350;2022-08-19T09:25:27;95979.19;;;18.70;100.00
596;BME280;19946;49.306;11.350;2022-08-19T09:28:28;95975.16;;;18.74;100.00
596;BME280;19946;49.306;11.350;2022-08-19T09:31:29;95972.75;;;18.73;100.00
596;BME280;19946;49.306;11.350;2022-08-19T09:34:31;95973.63;;;18.86;100.00
596;BME280;19946;49.306;11.350;2022-08-19T09:37:32;95971.19;;;18.85;100.00
596;BME280;19946;49.306;11.350;2022-08-19T09:40:33;95969.19;;;18.87;100.00
596;BME280;19946;49.306;11.350;2022-08-19T09:43:33;95984.28;;;18.78;100.00
596;BME280;19946;49.306;11.350;2022-08-19T09:46:36;95978.16;;;18.71;100.00
596;BME280;19946;49.306;11.350;2022-08-19T09:49:37;95989.81;;;18.90;100.00
596;BME280;19946;49.306;11.350;2022-08-19T09:52:39;95975.78;;;18.76;100.00
596;BME280;19946;49.306;11.350;2022-08-19T09:55:43;95985.47;;;18.76;100.00
596;BME280;19946;49.306;11.350;2022-08-19T09:58:44;95979.19;;;18.70;100.00
596;BME280;19946;49.306;11.350;2022-08-19T10:01:44;95984.19;;;18.65;100.00
596;BME280;19946;49.306;11.350;2022-08-19T10:04:45;95980.81;;;18.50;100.00
596;BME280;19946;49.306;11.350;2022-08-19T10:08:04;95979.34;;;18.41;100.00
596;BME280;19946;49.306;11.350;2022-08-19T10:11:04;95992.63;;;18.39;100.00
596;BME280;19946;49.306;11.350;2022-08-19T10:14:06;95992.22;;;18.36;100.00
596;BME280;19946;49.306;11.350;2022-08-19T10:17:06;95993.44;;;18.40;100.00
596;BME280;19946;49.306;11.350;2022-08-19T10:20:07;96004.81;;;18.47;100.00
596;BME280;19946;49.306;11.350;2022-08-19T10:23:07;95992.25;;;18.42;100.00
596;BME280;19946;49.306;11.350;2022-08-19T10:26:08;95996.47;;;18.37;100.00
596;BME280;19946;49.306;11.350;2022-08-19T10:29:08;96006.13;;;18.36;100.00
596;BME280;19946;49.306;11.350;2022-08-19T10:32:10;96005.50;;;18.34;100.00
596;BME280;19946;49.306;11.350;2022-08-19T10:35:10;96003.91;;;18.40;100.00
596;BME280;19946;49.306;11.350;2022-08-19T10:38:10;96007.13;;;18.35;100.00
596;BME280;19946;49.306;11.350;2022-08-19T10:41:14;96013.31;;;18.28;100.00
596;BME280;19946;49.306;11.350;2022-08-19T10:44:15;96013.88;;;18.23;100.00
596;BME280;19946;49.306;11.350;2022-08-19T10:47:17;96016.22;;;18.18;100.00
596;BME280;19946;49.306;11.350;2022-08-19T10:50:17;96017.44;;;18.15;100.00
596;BME280;19946;49.306;11.350;2022-08-19T10:53:36;96001.63;;;18.09;100.00
596;BME280;19946;49.306;11.350;2022-08-19T10:56:36;96015.19;;;18.12;100.00
596;BME280;19946;49.306;11.350;2022-08-19T10:59:51;96013.50;;;18.05;100.00
596;BME280;19946;49.306;11.350;2022-08-19T11:02:52;96006.06;;;18.08;100.00
596;BME280;19946;49.306;11.350;2022-08-19T11:06:04;96010.81;;;18.19;100.00
596;BME280;19946;49.306;11.350;2022-08-19T11:09:05;96003.19;;;18.24;100.00
596;BME280;19946;49.306;11.350;2022-08-19T11:12:06;95999.88;;;18.58;100.00
596;BME280;19946;49.306;11.350;2022-08-19T11:15:09;95996.75;;;18.70;100.00
596;BME280;19946;49.306;11.350;2022-08-19T11:18:11;95998.16;;;19.00;100.00
596;BME280;19946;49.306;11.350;2022-08-19T11:24:21;95997.34;;;19.47;100.00
596;BME280;19946;49.306;11.350;2022-08-19T11:27:22;95990.66;;;19.38;100.00
596;BME280;19946;49.306;11.350;2022-08-19T11:30:23;95994.84;;;19.26;100.00
596;BME280;19946;49.306;11.350;2022-08-19T11:33:23;96000.19;;;19.05;100.00
596;BME280;19946;49.306;11.350;2022-08-19T11:36:27;95993.94;;;19.06;100.00
596;BME280;19946;49.306;11.350;2022-08-19T11:39:30;95993.91;;;19.40;100.00
596;BME280;19946;49.306;11.350;2022-08-19T11:42:30;95985.94;;;19.55;100.00
596;BME280;19946;49.306;11.350;2022-08-19T11:45:49;95984.31;;;19.54;100.00
596;BME280;19946;49.306;11.350;2022-08-19T11:48:50;95987.88;;;19.46;100.00
596;BME280;19946;49.306;11.350;2022-08-19T11:51:50;95988.59;;;19.27;100.00
596;BME280;19946;49.306;11.350;2022-08-19T11:54:51;95978.50;;;19.24;100.00
596;BME280;19946;49.306;11.350;2022-08-19T11:57:51;95979.94;;;19.33;100.00
596;BME280;19946;49.306;11.350;2022-08-19T12:00:52;95983.78;;;19.30;100.00
596;BME280;19946;49.306;11.350;2022-08-19T12:03:54;95978.16;;;19.40;100.00
596;BME280;19946;49.306;11.350;2022-08-19T12:06:55;95974.28;;;19.36;100.00
596;BME280;19946;49.306;11.350;2022-08-19T12:09:55;95975.22;;;19.56;100.00
596;BME280;19946;49.306;11.350;2022-08-19T12:12:56;95968.19;;;19.70;100.00
596;BME280;19946;49.306;11.350;2022-08-19T12:15:57;95972.66;;;19.76;100.00
596;BME280;19946;49.306;11.350;2022-08-19T12:18:59;95976.75;;;19.98;100.00
596;BME280;19946;49.306;11.350;2022-08-19T12:22:03;95965.41;;;19.91;100.00
596;BME280;19946;49.306;11.350;2022-08-19T12:25:05;95955.25;;;19.68;100.00
596;BME280;19946;49.306;11.350;2022-08-19T12:28:06;95950.78;;;19.62;100.00
596;BME280;19946;49.306;11.350;2022-08-19T12:31:07;95959.16;;;19.38;100.00
596;BME280;19946;49.306;11.350;2022-08-19T12:34:07;95961.94;;;19.23;100.00
596;BME280;19946;49.306;11.350;2022-08-19T12:37:08;95964.66;;;19.02;100.00
596;BME280;19946;49.306;11.350;2022-08-19T12:40:09;95964.97;;;18.86;100.00
596;BME280;19946;49.306;11.350;2022-08-19T12:43:11;95973.81;;;18.85;100.00
596;BME280;19946;49.306;11.350;2022-08-19T12:46:12;95958.81;;;18.72;100.00
596;BME280;19946;49.306;11.350;2022-08-19T12:49:12;95965.69;;;18.73;100.00
596;BME280;19946;49.306;11.350;2022-08-19T12:52:13;95972.91;;;18.65;100.00
596;BME280;19946;49.306;11.350;2022-08-19T12:55:16;95970.31;;;18.71;100.00
596;BME280;19946;49.306;11.350;2022-08-19T12:58:18;95975.88;;;18.89;100.00
596;BME280;19946;49.306;11.350;2022-08-19T13:01:19;95973.53;;;19.01;100.00
596;BME280;19946;49.306;11.350;2022-08-19T13:04:20;95971.19;;;19.13;100.00
596;BME280;19946;49.306;11.350;2022-08-19T13:07:20;95968.81;;;19.31;100.00
596;BME280;19946;49.306;11.350;2022-08-19T13:10:24;95982.13;;;19.23;100.00
596;BME280;19946;49.306;11.350;2022-08-19T13:13:24;95981.72;;;19.26;100.00
596;BME280;19946;49.306;11.350;2022-08-19T13:16:26;95982.50;;;19.20;100.00
596;BME280;19946;49.306;11.350;2022-08-19T13:19:27;95975.28;;;19.28;100.00
596;BME280;19946;49.306;11.350;2022-08-19T13:22:28;95971.28;;;19.39;100.00
596;BME280;19946;49.306;11.350;2022-08-19T13:25:29;95981.25;;;19.50;100.00
596;BME280;19946;49.306;11.350;2022-08-19T13:28:30;95975.00;;;19.51;100.00
596;BME280;19946;49.306;11.350;2022-08-19T13:31:50;95971.00;;;19.21;100.00
596;BME280;19946;49.306;11.350;2022-08-19T13:35:10;95980.13;;;19.25;100.00
596;BME280;19946;49.306;11.350;2022-08-19T13:38:11;95981.31;;;19.22;100.00
596;BME280;19946;49.306;11.350;2022-08-19T13:41:12;95973.03;;;19.25;100.00
596;BME280;19946;49.306;11.350;2022-08-19T13:44:15;95973.19;;;19.11;100.00
596;BME280;19946;49.306;11.350;2022-08-19T13:47:15;95979.81;;;19.07;100.00
596;BME280;19946;49.306;11.350;2022-08-19T13:50:18;95976.88;;;19.23;100.00
596;BME280;19946;49.306;11.350;2022-08-19T13:53:19;95969.19;;;19.21;100.00
596;BME280;19946;49.306;11.350;2022-08-19T13:56:20;95973.38;;;19.16;100.00
596;BME280;19946;49.306;11.350;2022-08-19T13:59:20;95965.69;;;19.08;100.00
596;BME280;19946;49.306;11.350;2022-08-19T14:02:20;95980.41;;;19.02;100.00
596;BME280;19946;49.306;11.350;2022-08-19T14:05:21;95978.53;;;18.96;100.00
596;BME280;19946;49.306;11.350;2022-08-19T14:08:22;95974.28;;;18.95;100.00
596;BME280;19946;49.306;11.350;2022-08-19T14:11:23;95976.41;;;18.78;100.00
596;BME280;19946;49.306;11.350;2022-08-19T14:14:23;95976.00;;;18.53;100.00
596;BME280;19946;49.306;11.350;2022-08-19T14:17:23;95980.72;;;18.37;100.00
596;BME280;19946;49.306;11.350;2022-08-19T14:20:25;95979.00;;;18.22;100.00
596;BME280;19946;49.306;11.350;2022-08-19T14:23:25;95982.97;;;17.97;100.00
596;BME280;19946;49.306;11.350;2022-08-19T14:26:26;95975.25;;;17.89;100.00
596;BME280;19946;49.306;11.350;2022-08-19T14:29:26;95983.72;;;17.91;100.00
596;BME280;19946;49.306;11.350;2022-08-19T14:32:29;95983.41;;;17.79;100.00
596;BME280;19946;49.306;11.350;2022-08-19T14:35:31;95990.84;;;17.61;100.00
596;BME280;19946;49.306;11.350;2022-08-19T14:38:35;95985.09;;;17.51;100.00
596;BME280;19946;49.306;11.350;2022-08-19T14:41:35;95978.13;;;17.43;100.00
596;BME280;19946;49.306;11.350;2022-08-19T14:44:36;95976.09;;;17.39;100.00
596;BME280;19946;49.306;11.350;2022-08-19T14:47:37;95976.00;;;17.32;100.00
596;BME280;19946;49.306;11.350;2022-08-19T14:50:38;95980.06;;;17.35;100.00
596;BME280;19946;49.306;11.350;2022-08-19T14:53:39;95969.41;;;17.36;100.00
596;BME280;19946;49.306;11.350;2022-08-19T14:56:40;95968.78;;;17.34;100.00
596;BME280;19946;49.306;11.350;2022-08-19T14:59:43;95974.47;;;17.38;100.00
596;BME280;19946;49.306;11.350;2022-08-19T15:02:44;95980.94;;;17.42;100.00
596;BME280;19946;49.306;11.350;2022-08-19T15:05:44;95973.28;;;17.40;100.00
596;BME280;19946;49.306;11.350;2022-08-19T15:08:45;95974.72;;;17.43;100.00
596;BME280;19946;49.306;11.350;2022-08-19T15:11:45;95971.22;;;17.36;100.00
596;BME280;19946;49.306;11.350;2022-08-19T15:14:46;95976.16;;;17.45;100.00
596;BME280;19946;49.306;11.350;2022-08-19T15:17:50;95975.09;;;17.40;100.00
596;BME280;19946;49.306;11.350;2022-08-19T15:20:50;95969.22;;;17.38;100.00
596;BME280;19946;49.306;11.350;2022-08-19T15:23:51;95974.47;;;17.38;100.00
596;BME280;19946;49.306;11.350;2022-08-19T15:26:53;95979.69;;;17.38;100.00
596;BME280;19946;49.306;11.350;2022-08-19T15:29:53;95982.13;;;17.39;100.00
596;BME280;19946;49.306;11.350;2022-08-19T15:32:55;95982.13;;;17.39;100.00
596;BME280;19946;49.306;11.350;2022-08-19T15:35:55;95987.63;;;17.44;100.00
596;BME280;19946;49.306;11.350;2022-08-19T15:38:57;95985.34;;;17.41;100.00
596;BME280;19946;49.306;11.350;2022-08-19T15:41:58;95999.63;;;17.39;100.00
596;BME280;19946;49.306;11.350;2022-08-19T15:44:59;95994.31;;;17.32;100.00
596;BME280;19946;49.306;11.350;2022-08-19T15:48:02;95997.66;;;17.26;100.00
596;BME280;19946;49.306;11.350;2022-08-19T15:51:03;95995.16;;;17.18;100.00
596;BME280;19946;49.306;11.350;2022-08-19T15:54:05;95999.19;;;17.21;100.00
596;BME280;19946;49.306;11.350;2022-08-19T15:57:06;95996.78;;;17.19;100.00
596;BME280;19946;49.306;11.350;2022-08-19T16:00:21;95993.34;;;17.19;100.00
596;BME280;19946;49.306;11.350;2022-08-19T16:03:40;95995.75;;;17.20;100.00
596;BME280;19946;49.306;11.350;2022-08-19T16:07:00;95997.94;;;17.17;100.00
596;BME280;19946;49.306;11.350;2022-08-19T16:10:01;95998.31;;;17.13;100.00
596;BME280;19946;49.306;11.350;2022-08-19T16:13:01;96004.81;;;17.18;100.00